Time;durP1;ratioP1;P1;durP2;ratioP2;P2;SDS_P1;SDS_P2;PMS_P1;PMS_P2;Temp;Humidity;BMP_temperature;BMP_pressure;BME280_temperature;BME280_humidity;BME280_pressure;Samples;Min_cycle;Max_cycle;Signal;HPM_P1;HPM_P2
2024/02/21 00:00:17;;;;;;;32.60;19.90;;;;;;;0.86;87.01;96187.59;106953;1275;22518;-73
2024/02/21 00:03:05;;;;;;;62.60;28.70;;;;;;;0.82;87.30;96185.58;106575;1275;603842;-73
2024/02/21 00:05:33;;;;;;;59.20;26.40;;;;;;;0.84;87.00;96180.44;106625;1275;22792;-73
2024/02/21 00:08:03;;;;;;;27.50;14.40;;;;;;;0.93;87.01;96177.89;106629;1275;22896;-73
2024/02/21 00:10:32;;;;;;;28.60;14.10;;;;;;;1.00;87.27;96177.42;106862;1264;24848;-73
2024/02/21 00:13:00;;;;;;;52.10;23.50;;;;;;;1.08;87.55;96174.85;106909;1275;24106;-73
2024/02/21 00:15:29;;;;;;;62.00;29.20;;;;;;;1.16;87.58;96172.84;106644;1275;25323;-73
2024/02/21 00:17:57;;;;;;;67.80;31.90;;;;;;;1.28;87.48;96170.89;106708;1275;24305;-73
2024/02/21 00:20:26;;;;;;;55.00;26.50;;;;;;;1.34;86.76;96162.88;106706;1275;22532;-73
2024/02/21 00:22:54;;;;;;;49.80;23.20;;;;;;;1.36;86.35;96162.09;106700;1264;24240;-73
2024/02/21 00:25:23;;;;;;;57.60;27.80;;;;;;;1.31;86.20;96160.92;106785;1275;22595;-73
2024/02/21 00:27:51;;;;;;;55.40;28.30;;;;;;;1.25;86.14;96159.39;106747;1275;26551;-73
2024/02/21 00:30:20;;;;;;;60.80;31.40;;;;;;;1.24;86.22;96156.59;106702;1275;22537;-73
2024/02/21 00:32:49;;;;;;;59.50;29.90;;;;;;;1.24;86.49;96151.73;106609;1275;22533;-73
2024/02/21 00:35:17;;;;;;;50.00;26.30;;;;;;;1.36;87.02;96150.28;106647;1275;23882;-73
2024/02/21 00:37:45;;;;;;;50.40;25.80;;;;;;;1.50;86.84;96146.64;106849;1275;22528;-73
2024/02/21 00:40:19;;;;;;;43.30;22.70;;;;;;;1.56;86.19;96144.73;107010;1275;24192;-73
2024/02/21 00:42:48;;;;;;;39.10;21.50;;;;;;;1.61;86.28;96141.38;106841;1275;22733;-73
2024/02/21 00:45:16;;;;;;;28.80;18.00;;;;;;;1.70;86.34;96134.33;106738;1275;22527;-73
2024/02/21 00:47:45;;;;;;;31.90;17.10;;;;;;;1.77;85.84;96135.02;106654;1275;22524;-73
2024/02/21 00:50:13;;;;;;;32.90;18.10;;;;;;;1.74;85.28;96131.66;106999;1275;22525;-73
2024/02/21 00:52:43;;;;;;;33.70;17.60;;;;;;;1.66;85.21;96134.23;106946;1275;22517;-73
2024/02/21 00:55:11;;;;;;;33.00;17.10;;;;;;;1.60;85.23;96133.75;106728;1275;25361;-73
2024/02/21 00:57:40;;;;;;;64.40;24.00;;;;;;;1.63;85.75;96131.36;106635;1275;23850;-73
2024/02/21 01:00:09;;;;;;;55.90;25.10;;;;;;;1.59;85.40;96128.33;106770;1275;25243;-73
2024/02/21 01:02:37;;;;;;;46.40;24.70;;;;;;;1.53;85.43;96128.52;106594;1275;26699;-73
2024/02/21 01:05:06;;;;;;;48.10;23.70;;;;;;;1.36;85.61;96125.52;106536;1275;25411;-73
2024/02/21 01:07:34;;;;;;;56.50;27.30;;;;;;;1.25;85.83;96124.89;106688;1275;25359;-73
2024/02/21 01:10:02;;;;;;;48.80;22.80;;;;;;;1.19;85.63;96119.52;106628;1275;22528;-73
2024/02/21 01:12:30;;;;;;;46.10;23.90;;;;;;;1.18;85.96;96118.31;106698;1275;24381;-73
2024/02/21 01:14:59;;;;;;;49.40;25.40;;;;;;;1.21;86.39;96116.64;106636;1275;22665;-73
2024/02/21 01:17:27;;;;;;;48.40;23.70;;;;;;;1.22;86.44;96113.02;106618;1275;22526;-73
2024/02/21 01:19:55;;;;;;;43.10;21.90;;;;;;;1.17;86.56;96109.26;106790;1275;22571;-73
2024/02/21 01:22:24;;;;;;;49.80;26.30;;;;;;;1.13;86.79;96109.16;106765;1275;25374;-73
2024/02/21 01:24:52;;;;;;;50.10;26.10;;;;;;;1.10;86.86;96104.74;106609;1272;25220;-72
2024/02/21 01:27:20;;;;;;;45.20;23.20;;;;;;;1.08;86.64;96107.29;106685;1275;23974;-73
2024/02/21 01:29:49;;;;;;;48.70;25.80;;;;;;;1.07;86.61;96102.60;106628;1275;24196;-72
2024/02/21 01:32:18;;;;;;;39.80;20.90;;;;;;;1.06;86.69;96103.94;106639;1275;22848;-73
2024/02/21 01:34:46;;;;;;;40.90;20.30;;;;;;;1.02;86.49;96100.54;106683;1275;23950;-72
2024/02/21 01:37:14;;;;;;;47.20;23.90;;;;;;;0.99;86.83;96104.98;106617;1275;22645;-72
2024/02/21 01:39:43;;;;;;;38.10;17.60;;;;;;;0.99;86.50;96097.88;106672;1275;22660;-73
2024/02/21 01:42:11;;;;;;;47.00;23.30;;;;;;;1.01;86.58;96095.48;106709;1275;25863;-72
2024/02/21 01:44:39;;;;;;;31.90;15.40;;;;;;;1.01;86.80;96093.26;106655;1275;22524;-73
2024/02/21 01:47:07;;;;;;;11.00;6.30;;;;;;;1.02;86.94;96090.50;106654;1253;22612;-72
2024/02/21 01:49:36;;;;;;;15.80;7.10;;;;;;;1.04;87.40;96092.12;106748;1275;22671;-72
2024/02/21 01:52:05;;;;;;;18.90;9.30;;;;;;;1.07;87.55;96088.91;107020;1275;24387;-72
2024/02/21 01:54:33;;;;;;;55.90;24.60;;;;;;;1.13;88.44;96089.06;107031;1275;25389;-73
2024/02/21 01:57:02;;;;;;;71.90;29.50;;;;;;;1.21;88.48;96085.61;107008;1275;22539;-73
2024/02/21 01:59:30;;;;;;;61.80;27.60;;;;;;;1.29;88.07;96084.77;106663;1275;24193;-72
2024/02/21 02:02:00;;;;;;;49.80;24.80;;;;;;;1.29;87.50;96084.42;106675;1275;22518;-72
2024/02/21 02:04:29;;;;;;;55.90;26.10;;;;;;;1.29;87.47;96082.19;106682;1275;22520;-72
2024/02/21 02:07:02;;;;;;;49.60;21.60;;;;;;;1.37;87.60;96079.09;106673;1275;23672;-72
2024/02/21 02:09:31;;;;;;;44.30;20.90;;;;;;;1.46;87.90;96079.30;106732;1275;23921;-72
2024/02/21 02:12:00;;;;;;;35.80;18.50;;;;;;;1.61;88.09;96075.14;106665;1275;25271;-72
2024/02/21 02:14:29;;;;;;;29.90;12.90;;;;;;;1.64;86.91;96070.19;106635;1275;22647;-72
2024/02/21 02:16:57;;;;;;;5.70;3.30;;;;;;;1.65;86.86;96072.83;106629;1275;24246;-72
2024/02/21 02:19:25;;;;;;;10.00;4.80;;;;;;;1.66;86.79;96069.71;106625;1275;25475;-72
2024/02/21 02:21:59;;;;;;;35.60;16.70;;;;;;;1.66;86.85;96071.30;106627;1275;25258;-72
2024/02/21 02:24:28;;;;;;;39.80;17.70;;;;;;;1.64;86.31;96070.88;106712;1275;24228;-73
2024/02/21 02:26:56;;;;;;;42.70;19.50;;;;;;;1.58;86.50;96069.02;106599;1275;24256;-72
2024/02/21 02:29:24;;;;;;;43.70;20.60;;;;;;;1.59;87.00;96066.43;106573;1275;24210;-74
2024/02/21 02:31:53;;;;;;;46.10;22.80;;;;;;;1.65;86.86;96066.74;106597;1275;22963;-72
2024/02/21 02:34:21;;;;;;;45.40;21.30;;;;;;;1.65;86.37;96066.05;106616;1275;25402;-72
2024/02/21 02:36:50;;;;;;;41.40;20.40;;;;;;;1.58;86.24;96066.75;106640;1275;22540;-73
2024/02/21 02:39:18;;;;;;;45.70;22.50;;;;;;;1.62;86.97;96063.89;106701;1275;23041;-73
2024/02/21 02:41:46;;;;;;;44.60;22.00;;;;;;;1.69;86.82;96066.85;106680;1275;22795;-72
2024/02/21 02:44:14;;;;;;;40.60;21.40;;;;;;;1.72;86.45;96067.44;106721;1269;22770;-72
2024/02/21 02:46:43;;;;;;;43.30;21.60;;;;;;;1.67;85.82;96065.23;106659;1275;23081;-72
2024/02/21 02:49:11;;;;;;;36.70;18.00;;;;;;;1.65;86.30;96061.73;106638;1275;22918;-73
2024/02/21 02:51:43;;;;;;;38.40;18.30;;;;;;;1.63;85.99;96063.93;106717;1275;22532;-72
2024/02/21 02:54:12;;;;;;;70.70;30.80;;;;;;;1.59;85.94;96064.85;106627;1275;25310;-72
2024/02/21 02:56:40;;;;;;;50.10;22.10;;;;;;;1.60;86.47;96059.51;106640;1275;22535;-72
2024/02/21 02:59:08;;;;;;;38.50;17.70;;;;;;;1.67;86.57;96059.67;106692;1275;24331;-72
2024/02/21 03:01:37;;;;;;;27.20;11.10;;;;;;;1.65;86.26;96058.09;106685;1275;24224;-72
2024/02/21 03:04:06;;;;;;;10.80;5.40;;;;;;;1.66;86.65;96060.70;106680;1275;22517;-73
2024/02/21 03:06:35;;;;;;;4.00;2.40;;;;;;;1.74;87.20;96065.21;106700;1275;22535;-72
2024/02/21 03:09:08;;;;;;;15.10;6.40;;;;;;;1.83;87.41;96061.26;106671;1261;23281;-73
2024/02/21 03:11:37;;;;;;;51.20;24.50;;;;;;;1.85;87.32;96061.15;106681;1275;25485;-73
2024/02/21 03:14:06;;;;;;;67.30;29.60;;;;;;;1.86;86.88;96060.48;106669;1275;22642;-72
2024/02/21 03:16:34;;;;;;;40.10;19.40;;;;;;;1.89;86.91;96060.18;106662;1275;22523;-72
2024/02/21 03:19:03;;;;;;;37.60;18.20;;;;;;;1.94;87.03;96063.09;106669;1275;24206;-72
2024/02/21 03:21:31;;;;;;;37.10;18.10;;;;;;;1.99;86.94;96060.23;106624;1275;22772;-72
2024/02/21 03:24:00;;;;;;;29.80;15.30;;;;;;;2.04;86.91;96061.21;106664;1275;22523;-73
2024/02/21 03:26:28;;;;;;;35.20;18.40;;;;;;;1.99;86.07;96059.54;106702;1275;25472;-72
2024/02/21 03:28:56;;;;;;;15.10;8.60;;;;;;;1.90;85.80;96059.84;106646;1275;22651;-72
2024/02/21 03:31:24;;;;;;;17.70;9.80;;;;;;;1.86;86.03;96052.83;106627;1265;24074;-72
2024/02/21 03:33:59;;;;;;;5.40;3.50;;;;;;;1.88;86.55;96048.36;106642;1275;22530;-72
2024/02/21 03:36:27;;;;;;;7.30;3.90;;;;;;;1.91;86.57;96049.81;106634;1275;25397;-73
2024/02/21 03:38:55;;;;;;;18.60;8.80;;;;;;;1.91;86.74;96051.54;106627;1275;22527;-72
2024/02/21 03:41:24;;;;;;;26.90;15.30;;;;;;;1.86;86.49;96056.30;106655;1275;24057;-73
2024/02/21 03:43:52;;;;;;;34.80;18.70;;;;;;;1.81;86.45;96050.45;106629;1275;24329;-72
2024/02/21 03:46:20;;;;;;;36.30;18.60;;;;;;;1.71;86.27;96051.62;106617;1275;22516;-72
2024/02/21 03:48:49;;;;;;;34.80;18.60;;;;;;;1.61;86.79;96053.13;106625;1275;22731;-72
2024/02/21 03:51:17;;;;;;;36.30;19.10;;;;;;;1.51;86.85;96052.55;106655;1275;25275;-72
2024/02/21 03:53:45;;;;;;;24.60;13.60;;;;;;;1.45;86.98;96050.16;106681;1275;25368;-72
2024/02/21 03:56:13;;;;;;;8.10;4.70;;;;;;;1.47;87.20;96048.63;106619;1272;23960;-72
2024/02/21 03:58:41;;;;;;;7.50;4.50;;;;;;;1.49;87.24;96048.00;106630;1275;24205;-72
2024/02/21 04:01:10;;;;;;;9.90;5.70;;;;;;;1.49;87.66;96053.20;106682;1275;25204;-72
2024/02/21 04:03:38;;;;;;;10.00;5.80;;;;;;;1.48;87.41;96052.64;106664;1275;25259;-72
2024/02/21 04:06:07;;;;;;;11.70;5.60;;;;;;;1.48;87.66;96051.10;106652;1275;23725;-72
2024/02/21 04:08:35;;;;;;;22.10;11.60;;;;;;;1.45;87.87;96049.45;106697;1261;22942;-72
2024/02/21 04:11:03;;;;;;;22.30;11.70;;;;;;;1.39;87.72;96047.40;106687;1269;22542;-72
2024/02/21 04:13:32;;;;;;;22.60;11.80;;;;;;;1.34;87.80;96047.48;106631;1269;23153;-72
2024/02/21 04:16:01;;;;;;;22.50;12.80;;;;;;;1.34;88.54;96049.37;106613;1272;22520;-72
2024/02/21 04:18:29;;;;;;;25.80;13.90;;;;;;;1.35;89.30;96052.85;106644;1275;24078;-73
2024/02/21 04:20:58;;;;;;;38.30;19.80;;;;;;;1.36;89.22;96053.92;106622;1275;22549;-72
2024/02/21 04:23:27;;;;;;;39.70;19.20;;;;;;;1.37;89.47;96054.64;106532;1275;22551;-72
2024/02/21 04:25:55;;;;;;;29.70;17.90;;;;;;;1.40;89.44;96051.07;106741;1275;25522;-73
2024/02/21 04:28:23;;;;;;;130.50;53.50;;;;;;;1.40;89.37;96050.03;106620;1275;22923;-72
2024/02/21 04:30:51;;;;;;;189.50;75.90;;;;;;;1.37;89.63;96044.59;106676;1275;22533;-72
2024/02/21 04:33:20;;;;;;;107.40;47.30;;;;;;;1.37;89.91;96042.33;106595;1275;22520;-72
2024/02/21 04:35:48;;;;;;;53.70;25.90;;;;;;;1.42;89.89;96038.81;106638;1275;22739;-73
2024/02/21 04:38:16;;;;;;;22.40;10.60;;;;;;;1.53;89.96;96038.89;106616;1253;22534;-73
2024/02/21 04:40:44;;;;;;;22.00;11.60;;;;;;;1.65;89.89;96039.54;106653;1275;22511;-72
2024/02/21 04:43:13;;;;;;;27.10;15.10;;;;;;;1.73;89.55;96039.89;106683;1275;22639;-72
2024/02/21 04:45:41;;;;;;;42.70;22.80;;;;;;;1.81;89.65;96046.30;106604;1275;22530;-72
2024/02/21 04:48:09;;;;;;;53.20;26.50;;;;;;;1.95;89.94;96043.33;106643;1275;22536;-72
2024/02/21 04:50:37;;;;;;;50.30;25.90;;;;;;;2.05;89.21;96039.17;106734;1275;25274;-73
2024/02/21 04:53:06;;;;;;;46.70;23.90;;;;;;;2.17;89.26;96039.61;106616;1275;23914;-72
2024/02/21 04:55:34;;;;;;;44.20;21.40;;;;;;;2.26;88.68;96040.33;106667;1275;25405;-72
2024/02/21 04:58:03;;;;;;;36.70;18.60;;;;;;;2.28;87.86;96037.77;106702;1275;22526;-72
2024/02/21 05:00:31;;;;;;;25.40;14.20;;;;;;;2.26;87.76;96040.13;106626;1275;22595;-72
2024/02/21 05:02:59;;;;;;;34.40;17.80;;;;;;;2.32;88.25;96036.28;106604;1275;24411;-73
2024/02/21 05:05:28;;;;;;;24.60;13.70;;;;;;;2.33;87.68;96035.63;106659;1275;25347;-73
2024/02/21 05:07:56;;;;;;;27.90;14.50;;;;;;;2.29;87.14;96034.48;106665;1275;24847;-72
2024/02/21 05:10:25;;;;;;;28.40;16.90;;;;;;;2.26;87.21;96033.37;106661;1275;25468;-72
2024/02/21 05:12:53;;;;;;;28.50;16.20;;;;;;;2.26;87.41;96033.56;106743;1275;25340;-72
2024/02/21 05:15:21;;;;;;;26.30;16.30;;;;;;;2.29;87.54;96038.14;106601;1275;22528;-72
2024/02/21 05:17:49;;;;;;;32.20;17.00;;;;;;;2.31;87.52;96035.05;106487;1275;24259;-73
2024/02/21 05:20:18;;;;;;;45.10;22.70;;;;;;;2.36;87.68;96034.96;106727;1275;25340;-72
2024/02/21 05:22:46;;;;;;;21.60;12.60;;;;;;;2.39;87.31;96033.30;106622;1275;22740;-72
2024/02/21 05:25:15;;;;;;;30.90;14.00;;;;;;;2.33;86.66;96031.26;106699;1275;22586;-74
2024/02/21 05:27:43;;;;;;;32.50;18.80;;;;;;;2.23;86.86;96033.48;106631;1275;23105;-72
2024/02/21 05:30:12;;;;;;;34.00;17.70;;;;;;;2.16;87.10;96031.27;106621;1275;25217;-72
2024/02/21 05:32:40;;;;;;;67.40;34.10;;;;;;;2.13;87.26;96031.20;106745;1275;22528;-72
2024/02/21 05:35:09;;;;;;;71.50;36.90;;;;;;;2.13;87.38;96028.25;106641;1275;25372;-72
2024/02/21 05:37:38;;;;;;;40.00;21.70;;;;;;;2.07;87.57;96035.59;106641;1275;22943;-72
2024/02/21 05:40:07;;;;;;;27.00;16.00;;;;;;;1.98;87.82;96034.71;106704;1275;22513;-72
2024/02/21 05:42:35;;;;;;;21.20;13.10;;;;;;;1.91;87.65;96035.94;106719;1275;25482;-72
2024/02/21 05:45:04;;;;;;;26.80;15.60;;;;;;;1.87;87.82;96036.72;106663;1275;22574;-72
2024/02/21 05:47:32;;;;;;;25.90;15.30;;;;;;;1.85;88.21;96036.86;106721;1275;22535;-73
2024/02/21 05:50:01;;;;;;;25.50;15.00;;;;;;;1.84;88.66;96041.69;106501;1275;22533;-72
2024/02/21 05:52:29;;;;;;;24.50;14.20;;;;;;;1.85;88.30;96042.91;106637;1275;22655;-72
2024/02/21 05:54:58;;;;;;;21.70;13.10;;;;;;;1.88;88.50;96044.52;106764;1275;24721;-72
2024/02/21 05:57:26;;;;;;;22.30;13.50;;;;;;;1.88;88.64;96048.35;106657;1275;23309;-73
2024/02/21 05:59:54;;;;;;;24.00;14.60;;;;;;;1.86;89.12;96053.52;106657;1275;25409;-72
2024/02/21 06:02:22;;;;;;;26.20;15.60;;;;;;;1.87;89.11;96053.89;106662;1275;22524;-72
2024/02/21 06:04:50;;;;;;;33.20;17.60;;;;;;;1.86;88.82;96057.34;106638;1275;22520;-73
2024/02/21 06:07:19;;;;;;;28.40;16.40;;;;;;;1.85;89.11;96058.89;106639;1275;25269;-72
2024/02/21 06:09:47;;;;;;;23.00;14.70;;;;;;;1.83;89.39;96060.56;106621;1275;22632;-72
2024/02/21 06:12:15;;;;;;;30.80;17.10;;;;;;;1.81;89.39;96070.06;106700;1275;22640;-72
2024/02/21 06:14:44;;;;;;;27.30;16.10;;;;;;;1.81;89.46;96065.72;106719;1275;23276;-72
2024/02/21 06:17:13;;;;;;;31.10;17.40;;;;;;;1.84;89.54;96067.00;106613;1275;22632;-72
2024/02/21 06:19:43;;;;;;;27.20;16.30;;;;;;;1.85;89.89;96074.50;106623;1275;22523;-72
2024/02/21 06:22:11;;;;;;;32.40;19.40;;;;;;;1.88;89.91;96070.91;106554;1275;25364;-72
2024/02/21 06:24:40;;;;;;;37.30;24.90;;;;;;;1.95;90.07;96070.04;106589;1275;24447;-72
2024/02/21 06:27:08;;;;;;;39.40;25.20;;;;;;;2.04;89.88;96070.41;106646;1275;24257;-73
2024/02/21 06:29:38;;;;;;;37.30;23.20;;;;;;;2.11;89.67;96072.29;106686;1275;22529;-72
2024/02/21 06:32:06;;;;;;;75.40;36.60;;;;;;;2.15;89.23;96074.81;106655;1275;25237;-72
2024/02/21 06:34:35;;;;;;;195.80;104.20;;;;;;;2.20;89.42;96075.95;106644;1275;22543;-72
2024/02/21 06:37:04;;;;;;;45.90;27.50;;;;;;;2.32;90.20;96074.11;106704;1275;22534;-72
2024/02/21 06:39:32;;;;;;;37.70;22.20;;;;;;;2.45;90.01;96072.82;106626;1270;22635;-72
2024/02/21 06:42:00;;;;;;;32.30;18.00;;;;;;;2.57;89.95;96075.33;106485;1275;25272;-72
2024/02/21 06:44:32;;;;;;;134.30;55.60;;;;;;;2.64;89.12;96074.92;106649;1275;22756;-72
2024/02/21 06:47:00;;;;;;;127.30;51.40;;;;;;;2.63;89.13;96077.87;106631;1275;25350;-72
2024/02/21 06:49:28;;;;;;;124.60;53.30;;;;;;;2.68;89.73;96076.06;106674;1275;22642;-72
2024/02/21 06:51:57;;;;;;;83.90;41.40;;;;;;;2.79;89.92;96072.29;106622;1275;24174;-72
2024/02/21 06:54:25;;;;;;;114.10;54.20;;;;;;;2.82;89.24;96077.89;106640;1275;23922;-72
2024/02/21 06:56:54;;;;;;;70.30;35.70;;;;;;;2.83;89.23;96074.07;106671;1275;22549;-72
2024/02/21 06:59:22;;;;;;;90.60;41.80;;;;;;;2.91;89.34;96078.41;106634;1275;22524;-72
2024/02/21 07:01:54;;;;;;;107.10;51.10;;;;;;;2.95;88.86;96079.89;106604;1263;24420;-73
2024/02/21 07:04:22;;;;;;;105.50;51.20;;;;;;;2.98;88.82;96074.20;106630;1275;25605;-73
2024/02/21 07:06:51;;;;;;;61.40;33.60;;;;;;;3.10;89.35;96074.42;106496;1275;22529;-73
2024/02/21 07:09:19;;;;;;;36.70;20.10;;;;;;;3.25;89.45;96075.88;106659;1275;25218;-73
2024/02/21 07:11:48;;;;;;;56.70;28.90;;;;;;;3.33;89.02;96071.34;106702;1276;25272;-73
2024/02/21 07:14:16;;;;;;;46.10;21.60;;;;;;;3.42;89.20;96072.36;106645;1275;24208;-73
2024/02/21 07:16:44;;;;;;;37.30;19.30;;;;;;;3.54;89.00;96075.32;106717;1275;22624;-73
2024/02/21 07:19:12;;;;;;;28.80;15.10;;;;;;;3.60;88.47;96076.48;106713;1275;24246;-73
2024/02/21 07:21:42;;;;;;;25.70;13.20;;;;;;;3.73;88.84;96079.46;106667;1275;22526;-73
2024/02/21 07:24:10;;;;;;;19.40;9.90;;;;;;;3.91;88.92;96081.13;106734;1275;24195;-73
2024/02/21 07:26:42;;;;;;;16.30;10.20;;;;;;;4.03;88.30;96078.00;106649;1275;24804;-73
2024/02/21 07:29:11;;;;;;;23.20;11.90;;;;;;;4.15;88.32;96074.85;106705;1276;22598;-73
2024/02/21 07:31:43;;;;;;;16.30;9.10;;;;;;;4.19;87.42;96078.23;106748;1275;22530;-73
2024/02/21 07:34:12;;;;;;;22.10;13.60;;;;;;;4.17;86.65;96080.80;106644;1275;24245;-73
2024/02/21 07:36:42;;;;;;;21.70;11.70;;;;;;;4.19;87.10;96085.38;106635;1275;25325;-73
2024/02/21 07:39:11;;;;;;;14.80;8.70;;;;;;;4.24;87.13;96089.95;106693;1275;22531;-73
2024/02/21 07:41:41;;;;;;;15.50;9.00;;;;;;;4.25;86.30;96087.55;106642;1275;22528;-73
2024/02/21 07:44:09;;;;;;;11.50;7.80;;;;;;;4.27;86.54;96086.35;106632;1266;25402;-73
2024/02/21 07:46:37;;;;;;;10.30;6.70;;;;;;;4.23;85.87;96087.86;106648;1275;25474;-73
2024/02/21 07:49:06;;;;;;;12.20;8.60;;;;;;;4.20;85.98;96090.08;106667;1275;24463;-73
2024/02/21 07:51:36;;;;;;;22.50;11.80;;;;;;;4.19;85.99;96089.71;106657;1276;25284;-73
2024/02/21 07:54:04;;;;;;;28.00;16.00;;;;;;;4.18;85.81;96087.61;106636;1275;25328;-73
2024/02/21 07:56:32;;;;;;;25.20;15.60;;;;;;;4.12;85.89;96086.49;106665;1275;25570;-73
2024/02/21 07:59:01;;;;;;;26.70;16.10;;;;;;;4.04;85.85;96090.91;106664;1275;22527;-73
2024/02/21 08:01:29;;;;;;;25.40;14.60;;;;;;;3.97;85.98;96095.33;106645;1275;26625;-73
2024/02/21 08:03:58;;;;;;;17.30;11.30;;;;;;;3.91;85.86;96096.63;106630;1276;25319;-73
2024/02/21 08:06:27;;;;;;;15.00;9.70;;;;;;;3.90;86.14;96103.21;106704;1266;22628;-73
2024/02/21 08:08:57;;;;;;;15.00;9.70;;;;;;;3.90;86.16;96101.13;106602;1272;26083;-73
2024/02/21 08:11:25;;;;;;;13.10;8.40;;;;;;;3.89;86.16;96105.98;106678;1276;22667;-74
2024/02/21 08:13:53;;;;;;;11.50;7.40;;;;;;;3.87;86.58;96108.04;106697;1275;24246;-73
2024/02/21 08:16:22;;;;;;;7.20;5.30;;;;;;;3.84;86.49;96105.92;106600;1275;22638;-73
2024/02/21 08:18:50;;;;;;;25.50;11.10;;;;;;;3.83;86.61;96109.91;106629;1275;22543;-73
2024/02/21 08:21:18;;;;;;;19.80;11.10;;;;;;;3.81;86.57;96113.01;106667;1275;25223;-73
2024/02/21 08:23:51;;;;;;;12.40;8.20;;;;;;;3.79;86.83;96114.71;106664;1275;22547;-73
2024/02/21 08:26:19;;;;;;;21.80;13.80;;;;;;;3.80;87.01;96115.94;106617;1276;25211;-73
2024/02/21 08:28:47;;;;;;;28.80;16.00;;;;;;;3.80;87.22;96118.20;106715;1275;24250;-73
2024/02/21 08:31:20;;;;;;;15.20;9.70;;;;;;;3.82;86.93;96115.11;106646;1276;23667;-73
2024/02/21 08:33:48;;;;;;;13.10;6.80;;;;;;;3.83;86.92;96112.35;106669;1275;23929;-73
2024/02/21 08:36:19;;;;;;;16.40;9.40;;;;;;;3.82;86.88;96109.01;106642;1266;22527;-72
2024/02/21 08:38:47;;;;;;;19.70;8.60;;;;;;;3.84;87.04;96114.95;106683;1276;22547;-73
2024/02/21 08:41:16;;;;;;;12.10;7.50;;;;;;;3.84;87.21;96115.31;106616;1272;23975;-73
2024/02/21 08:43:45;;;;;;;10.10;6.20;;;;;;;3.83;87.61;96114.77;106604;1276;22524;-73
2024/02/21 08:46:13;;;;;;;37.00;21.70;;;;;;;3.82;87.62;96115.81;106630;1275;24240;-73
2024/02/21 08:48:42;;;;;;;10.80;7.20;;;;;;;3.84;87.43;96116.70;106654;1275;23958;-73
2024/02/21 08:51:11;;;;;;;16.10;8.00;;;;;;;3.87;87.40;96120.58;106627;1275;22530;-73
2024/02/21 08:53:40;;;;;;;13.30;6.40;;;;;;;3.87;88.03;96119.71;106683;1275;22526;-73
2024/02/21 08:56:08;;;;;;;8.40;5.70;;;;;;;3.88;88.37;96119.02;106640;1275;22536;-73
2024/02/21 08:58:37;;;;;;;6.20;3.90;;;;;;;3.93;88.64;96118.94;106642;1275;22534;-73
2024/02/21 09:01:09;;;;;;;10.60;5.40;;;;;;;4.00;88.69;96117.83;106636;1263;24224;-73
2024/02/21 09:03:39;;;;;;;8.20;6.10;;;;;;;4.06;89.16;96122.09;106682;1275;22531;-73
2024/02/21 09:06:12;;;;;;;10.00;5.30;;;;;;;4.14;89.23;96118.90;106654;1275;25351;-73
2024/02/21 09:08:42;;;;;;;6.70;4.40;;;;;;;4.23;88.92;96119.89;106663;1275;22531;-73
2024/02/21 09:11:10;;;;;;;11.10;7.00;;;;;;;4.32;88.83;96122.13;106653;1275;22570;-73
2024/02/21 09:13:39;;;;;;;28.80;18.30;;;;;;;4.41;88.57;96121.71;106510;1275;22545;-73
2024/02/21 09:16:08;;;;;;;10.40;7.10;;;;;;;4.45;88.42;96122.30;106472;1275;22535;-73
2024/02/21 09:18:37;;;;;;;11.60;7.50;;;;;;;4.49;88.47;96120.61;106742;1275;25459;-73
2024/02/21 09:21:05;;;;;;;11.40;7.10;;;;;;;4.58;88.33;96119.16;106646;1275;25399;-73
2024/02/21 09:23:34;;;;;;;7.40;5.50;;;;;;;4.69;87.88;96121.74;106589;1275;25227;-73
2024/02/21 09:26:04;;;;;;;9.00;5.50;;;;;;;4.83;88.09;96124.52;106616;1275;22616;-73
2024/02/21 09:28:34;;;;;;;10.00;6.40;;;;;;;4.98;87.93;96125.58;106673;1275;24398;-73
2024/02/21 09:31:03;;;;;;;7.90;5.40;;;;;;;5.12;87.65;96124.86;106721;1275;24250;-73
2024/02/21 09:33:31;;;;;;;6.90;5.10;;;;;;;5.24;87.50;96124.13;106655;1267;22656;-73
2024/02/21 09:36:01;;;;;;;8.60;4.90;;;;;;;5.33;86.61;96129.79;106629;1275;25377;-73
2024/02/21 09:38:29;;;;;;;6.50;4.40;;;;;;;5.37;86.17;96127.58;106656;1275;24240;-73
2024/02/21 09:41:09;;;;;;;7.40;4.80;;;;;;;5.36;85.46;96126.87;106651;1275;22811;-73
2024/02/21 09:43:40;;;;;;;6.60;4.60;;;;;;;5.31;85.22;96130.48;106604;1275;25328;-73
2024/02/21 09:46:16;;;;;;;10.70;4.90;;;;;;;5.24;84.77;96129.70;106652;1275;24357;-73
2024/02/21 09:48:58;;;;;;;7.20;4.90;;;;;;;5.17;85.01;96132.75;106662;1275;24259;-73
2024/02/21 09:51:32;;;;;;;7.50;5.00;;;;;;;5.16;85.51;96139.91;106600;1275;22526;-73
2024/02/21 09:54:01;;;;;;;6.70;4.70;;;;;;;5.12;85.77;96138.81;106675;1275;22539;-73
2024/02/21 09:56:46;;;;;;;7.50;4.90;;;;;;;5.14;85.87;96135.17;106598;1275;25195;-73
2024/02/21 09:59:16;;;;;;;10.90;5.30;;;;;;;5.25;86.29;96132.67;106707;1275;24373;-73
2024/02/21 10:01:46;;;;;;;9.40;5.20;;;;;;;5.42;86.35;96130.05;106677;1275;22533;-73
2024/02/21 10:04:15;;;;;;;7.50;4.60;;;;;;;5.54;85.73;96125.45;106658;1259;25498;-73
2024/02/21 10:06:44;;;;;;;6.90;4.30;;;;;;;5.68;85.52;96126.29;106660;1275;22775;-73
2024/02/21 10:09:30;;;;;;;5.40;3.80;;;;;;;5.79;84.80;96124.12;106679;1275;22527;-73
2024/02/21 10:12:12;;;;;;;5.70;3.70;;;;;;;5.88;84.24;96117.73;106609;1275;25475;-73
2024/02/21 10:14:41;;;;;;;5.10;3.50;;;;;;;5.98;83.15;96114.00;106672;1275;22546;-73
2024/02/21 10:17:19;;;;;;;4.90;3.40;;;;;;;6.02;82.53;96117.34;106632;1275;25284;-73
2024/02/21 10:19:47;;;;;;;4.10;3.10;;;;;;;6.14;82.77;96107.48;106689;1254;25486;-74
2024/02/21 10:22:17;;;;;;;3.90;2.90;;;;;;;6.26;81.87;96101.96;106638;1275;24060;-73
2024/02/21 10:24:45;;;;;;;3.50;2.70;;;;;;;6.34;80.75;96096.41;106626;1275;22547;-73
2024/02/21 10:27:13;;;;;;;4.60;3.70;;;;;;;6.39;80.36;96090.51;106634;1275;22530;-73
2024/02/21 10:29:42;;;;;;;4.60;3.30;;;;;;;6.51;80.88;96086.38;106650;1275;22527;-73
2024/02/21 10:32:12;;;;;;;4.60;3.60;;;;;;;6.58;80.30;96087.29;106619;1275;25262;-73
2024/02/21 10:34:42;;;;;;;7.50;3.60;;;;;;;6.58;79.64;96082.56;106690;1275;22523;-73
2024/02/21 10:37:12;;;;;;;6.40;3.70;;;;;;;6.53;78.92;96075.55;106647;1275;25305;-73
2024/02/21 10:39:42;;;;;;;5.10;3.70;;;;;;;6.59;80.11;96073.48;106607;1275;25271;-73
2024/02/21 10:42:11;;;;;;;6.10;4.50;;;;;;;6.65;79.51;96067.39;106660;1275;26515;-73
2024/02/21 10:44:41;;;;;;;4.80;3.80;;;;;;;6.61;78.72;96060.74;106584;1275;22531;-73
2024/02/21 10:47:13;;;;;;;4.00;3.40;;;;;;;6.65;79.57;96053.23;106637;1275;22523;-74
2024/02/21 10:49:47;;;;;;;4.90;3.80;;;;;;;6.68;80.07;96047.13;106622;1276;23668;-73
2024/02/21 10:52:37;;;;;;;4.10;3.70;;;;;;;6.68;79.21;96045.02;106648;1276;22534;-73
2024/02/21 10:55:16;;;;;;;5.70;4.00;;;;;;;6.89;80.66;96037.58;106652;1276;22549;-73
2024/02/21 10:57:46;;;;;;;6.10;4.10;;;;;;;7.40;80.05;96033.12;106669;1276;24387;-74
2024/02/21 11:00:17;;;;;;;6.20;3.60;;;;;;;7.59;79.13;96033.13;106643;1266;23142;-73
2024/02/21 11:02:47;;;;;;;6.60;3.40;;;;;;;7.57;77.01;96029.80;106665;1276;22546;-74
2024/02/21 11:05:17;;;;;;;5.10;3.50;;;;;;;7.41;76.29;96031.89;106615;1276;25230;-73
2024/02/21 11:07:45;;;;;;;4.90;3.60;;;;;;;7.23;76.10;96034.15;106628;1276;24263;-74
2024/02/21 11:10:24;;;;;;;5.60;3.60;;;;;;;7.10;76.41;96025.56;106425;1276;24265;-73
2024/02/21 11:13:05;;;;;;;6.00;3.20;;;;;;;6.99;76.41;96024.14;106626;1276;25535;-74
2024/02/21 11:15:33;;;;;;;4.30;3.10;;;;;;;7.00;77.15;96027.65;106614;1276;22643;-74
2024/02/21 11:18:02;;;;;;;6.80;3.30;;;;;;;7.05;77.43;96023.45;106621;1276;22527;-73
2024/02/21 11:20:36;;;;;;;4.10;3.50;;;;;;;7.16;77.55;96020.14;106657;1276;22568;-74
2024/02/21 11:23:05;;;;;;;5.60;3.90;;;;;;;7.29;77.37;96018.40;106648;1276;22619;-74
2024/02/21 11:25:33;;;;;;;4.00;3.10;;;;;;;7.56;77.15;96010.71;106636;1276;24376;-74
2024/02/21 11:28:05;;;;;;;5.30;3.40;;;;;;;7.83;76.75;96008.59;106669;1276;22538;-73
2024/02/21 11:30:37;;;;;;;3.70;3.10;;;;;;;7.87;75.74;96002.63;106674;1276;22530;-74